Clear Lake, Indiana
Current Conditions -  °F | °C
As of 9:55 AM on Tuesday 21 Oct 2014 (Local Time) from KANQ Reporting Station
Overcast Overcast  
Wind Chill: 41°   Ceiling: 900
Heat Index: 45°   Visibility: 6mi
Dew Point: 45°   Wind: 7mph
Humidity: 100%   Direction: 350°N
Pressure: 30.04"   Gusts: NA
Location:  41.7284°N, 84.9169°W
Report Text: KANQ 211355Z AUTO 35006KT 6SM OVC009 07/07 A3004 RMK
Loading
Personal Weather Stations






























Interactive Weather Map
Tropical Storm Tracking
New forecast layout! Learn more

10-Day Weather Forecast

Advertisements
Track Severe Weather on mobile